Time;durP1;ratioP1;P1;durP2;ratioP2;P2;SDS_P1;SDS_P2;PMS_P1;PMS_P2;Temp;Humidity;BMP_temperature;BMP_pressure;BME280_temperature;BME280_humidity;BME280_pressure;Samples;Min_cycle;Max_cycle;Signal;HPM_P1;HPM_P2
2021/05/28 00:01:19;;;;;;;1.82;1.72;;;;;;;15.25;100.00;100563.33;1769754;79;21007;-46
2021/05/28 00:03:46;;;;;;;2.17;1.27;;;;;;;15.23;100.00;100551.80;1758615;81;21045;-45
2021/05/28 00:06:12;;;;;;;1.27;1.17;;;;;;;15.20;100.00;100549.67;1776982;80;21521;-46
2021/05/28 00:08:39;;;;;;;1.22;1.12;;;;;;;15.18;100.00;100547.25;1754549;80;21390;-41
2021/05/28 00:11:07;;;;;;;1.60;1.50;;;;;;;15.16;100.00;100552.81;1787302;79;21043;-42
2021/05/28 00:13:33;;;;;;;1.22;1.12;;;;;;;15.15;100.00;100548.41;1762728;80;21028;-42
2021/05/28 00:16:02;;;;;;;1.67;0.85;;;;;;;15.12;100.00;100546.28;1771238;80;21038;-45
2021/05/28 00:18:30;;;;;;;0.90;0.90;;;;;;;15.09;100.00;100551.03;1752483;80;21067;-44
2021/05/28 00:20:56;;;;;;;0.90;0.90;;;;;;;15.05;100.00;100551.63;1773907;80;21031;-46
2021/05/28 00:23:22;;;;;;;1.82;1.47;;;;;;;15.00;100.00;100555.86;1730838;80;21429;-41
2021/05/28 00:25:49;;;;;;;1.62;1.10;;;;;;;14.98;100.00;100560.84;1807066;78;21044;-41
2021/05/28 00:28:15;;;;;;;2.33;1.72;;;;;;;14.96;100.00;100552.11;1758978;80;21049;-44
2021/05/28 00:30:44;;;;;;;2.20;1.70;;;;;;;14.96;100.00;100552.11;1781011;80;21055;-41
2021/05/28 00:33:10;;;;;;;2.27;1.50;;;;;;;14.95;100.00;100550.45;1770285;80;21047;-45
2021/05/28 00:35:38;;;;;;;0.78;0.75;;;;;;;14.95;100.00;100551.02;1779142;79;21437;-41
2021/05/28 00:38:04;;;;;;;1.15;0.93;;;;;;;14.93;100.00;100549.94;1789876;78;21022;-43
2021/05/28 00:40:31;;;;;;;0.70;0.70;;;;;;;14.89;100.00;100548.95;1777329;80;21163;-41
2021/05/28 00:42:57;;;;;;;1.52;0.85;;;;;;;14.87;100.00;100547.05;1776280;80;21075;-45
2021/05/28 00:45:24;;;;;;;1.22;0.90;;;;;;;14.84;100.00;100543.55;1783097;78;21086;-46
2021/05/28 00:47:50;;;;;;;1.52;1.42;;;;;;;14.81;100.00;100540.84;1789845;80;21620;-41
2021/05/28 00:50:17;;;;;;;1.47;1.37;;;;;;;14.78;100.00;100545.56;1764445;80;21521;-45
2021/05/28 00:52:46;;;;;;;2.58;1.30;;;;;;;14.76;100.00;100545.61;1765537;80;21027;-42
2021/05/28 00:55:13;;;;;;;1.67;1.55;;;;;;;14.72;100.00;100542.67;1758817;80;21530;-45
2021/05/28 00:57:40;;;;;;;1.00;0.88;;;;;;;14.69;100.00;100538.33;1768700;80;21045;-45
2021/05/28 01:00:07;;;;;;;1.35;1.17;;;;;;;14.67;100.00;100536.46;1743285;80;21079;-42
2021/05/28 01:02:34;;;;;;;3.12;1.42;;;;;;;14.66;100.00;100533.44;1761912;81;21015;-41
2021/05/28 01:05:00;;;;;;;1.55;1.20;;;;;;;14.64;100.00;100528.27;1763913;80;21482;-46
2021/05/28 01:07:27;;;;;;;1.30;1.20;;;;;;;14.65;100.00;100539.50;1794215;78;21071;-45
2021/05/28 01:09:55;;;;;;;2.17;1.57;;;;;;;14.65;100.00;100531.82;1792192;78;21040;-42
2021/05/28 01:12:22;;;;;;;0.72;0.72;;;;;;;14.65;100.00;100535.37;1727759;81;21042;-40
2021/05/28 01:14:50;;;;;;;1.70;1.10;;;;;;;14.65;100.00;100530.45;1764379;80;21036;-44
2021/05/28 01:17:17;;;;;;;1.87;1.35;;;;;;;14.66;100.00;100530.69;1779554;80;21083;-42
2021/05/28 01:19:45;;;;;;;0.95;0.80;;;;;;;14.67;100.00;100526.84;1786560;80;21003;-41
2021/05/28 01:22:11;;;;;;;1.40;1.05;;;;;;;14.67;100.00;100519.96;1759985;80;20982;-46
2021/05/28 01:24:39;;;;;;;1.05;1.00;;;;;;;14.67;100.00;100519.39;1773164;80;21095;-41
2021/05/28 01:27:06;;;;;;;0.95;0.95;;;;;;;14.69;100.00;100517.16;1756292;80;21055;-42
2021/05/28 01:29:33;;;;;;;3.85;2.20;;;;;;;14.70;100.00;100516.02;1785151;78;21582;-43
2021/05/28 01:32:01;;;;;;;1.42;1.32;;;;;;;14.70;100.00;100514.65;1755943;79;21579;-41
2021/05/28 01:34:27;;;;;;;1.45;1.15;;;;;;;14.72;100.00;100508.86;1764665;80;21026;-46
2021/05/28 01:36:55;;;;;;;2.42;1.45;;;;;;;14.72;100.00;100503.36;1758784;80;21046;-40
2021/05/28 01:39:22;;;;;;;2.17;1.72;;;;;;;14.75;100.00;100504.11;1782666;80;21067;-45
2021/05/28 01:41:48;;;;;;;2.92;1.50;;;;;;;14.75;100.00;100496.67;1783225;78;21062;-46
2021/05/28 01:44:17;;;;;;;1.82;1.60;;;;;;;14.76;100.00;100493.35;1811984;78;21627;-45
2021/05/28 01:46:43;;;;;;;0.90;0.85;;;;;;;14.77;100.00;100493.06;1752966;81;21063;-46
2021/05/28 01:49:09;;;;;;;4.40;2.35;;;;;;;14.80;100.00;100497.13;1783398;80;21541;-45
2021/05/28 01:51:36;;;;;;;2.37;1.90;;;;;;;14.81;100.00;100502.34;1776490;80;21072;-45
2021/05/28 01:54:03;;;;;;;0.90;0.90;;;;;;;14.83;100.00;100504.20;1749402;81;21067;-41
2021/05/28 01:56:30;;;;;;;2.92;1.72;;;;;;;14.85;100.00;100502.52;1758842;80;21031;-41
2021/05/28 01:58:58;;;;;;;2.35;1.65;;;;;;;14.85;100.00;100505.28;1776173;80;21050;-41
2021/05/28 02:01:24;;;;;;;1.40;1.30;;;;;;;14.86;100.00;100505.55;1733208;81;21039;-43
2021/05/28 02:03:51;;;;;;;4.45;1.60;;;;;;;14.83;100.00;100508.32;1795257;78;21012;-42
2021/05/28 02:06:17;;;;;;;5.75;2.55;;;;;;;14.81;100.00;100502.34;1790285;80;20982;-45
2021/05/28 02:08:44;;;;;;;3.72;1.70;;;;;;;14.80;100.00;100500.69;1758635;80;21008;-46
2021/05/28 02:11:10;;;;;;;1.57;1.30;;;;;;;14.80;100.00;100501.26;1761462;80;21047;-45
2021/05/28 02:13:38;;;;;;;2.70;1.70;;;;;;;14.79;100.00;100504.58;1774305;80;21040;-41
2021/05/28 02:16:07;;;;;;;1.60;1.50;;;;;;;14.80;100.00;100502.63;1780030;80;21019;-41
2021/05/28 02:18:33;;;;;;;0.90;0.90;;;;;;;14.81;100.00;100502.34;1768185;80;21102;-45
2021/05/28 02:21:01;;;;;;;2.45;1.67;;;;;;;14.82;100.00;100506.70;1791074;78;21031;-42
2021/05/28 02:23:27;;;;;;;2.12;1.70;;;;;;;14.84;100.00;100504.47;1789617;80;20997;-46
2021/05/28 02:25:56;;;;;;;2.00;1.75;;;;;;;14.85;100.00;100497.02;1791903;78;21106;-42
2021/05/28 02:28:23;;;;;;;1.60;1.47;;;;;;;14.86;100.00;100492.33;1784675;80;21035;-45
2021/05/28 02:30:49;;;;;;;1.30;1.20;;;;;;;14.85;100.00;100490.14;1738162;81;21569;-46
2021/05/28 02:33:15;;;;;;;2.15;1.95;;;;;;;14.86;100.00;100497.83;1776382;79;21000;-45
2021/05/28 02:35:42;;;;;;;2.70;1.72;;;;;;;14.85;100.00;100486.02;1759158;80;21056;-46
2021/05/28 02:38:08;;;;;;;2.90;2.33;;;;;;;14.87;100.00;100489.84;1789618;80;21031;-45
2021/05/28 02:40:35;;;;;;;2.50;2.10;;;;;;;14.87;100.00;100496.16;1791704;78;20996;-41
2021/05/28 02:43:01;;;;;;;3.30;1.82;;;;;;;14.88;100.00;100490.90;1821081;78;21008;-41
2021/05/28 02:45:27;;;;;;;2.80;1.77;;;;;;;14.91;100.00;100494.97;1774528;78;21083;-44
2021/05/28 02:47:57;;;;;;;2.00;1.90;;;;;;;14.94;100.00;100495.19;1789805;79;21549;-44
2021/05/28 02:50:23;;;;;;;3.70;2.12;;;;;;;14.96;100.00;100491.58;1768793;80;21608;-46
2021/05/28 02:52:49;;;;;;;2.47;2.12;;;;;;;15.03;100.00;100493.89;1770320;79;21579;-41
2021/05/28 02:55:17;;;;;;;2.27;1.65;;;;;;;15.11;100.00;100489.59;1767031;80;21055;-45
2021/05/28 02:57:44;;;;;;;2.40;1.67;;;;;;;15.17;100.00;100486.99;1784123;80;21047;-45
2021/05/28 03:00:11;;;;;;;3.87;1.82;;;;;;;15.25;100.00;100491.75;1756869;80;21087;-46
2021/05/28 03:02:38;;;;;;;2.00;1.12;;;;;;;15.37;100.00;100490.66;1735203;80;21094;-46
2021/05/28 03:05:05;;;;;;;2.67;1.95;;;;;;;15.49;100.00;100499.75;1783538;80;21019;-43
2021/05/28 03:07:32;;;;;;;3.47;2.25;;;;;;;15.62;100.00;100495.31;1790191;80;21015;-41
2021/05/28 03:09:58;;;;;;;2.80;2.12;;;;;;;15.76;100.00;100498.05;1761253;80;21036;-42
2021/05/28 03:12:24;;;;;;;2.05;1.80;;;;;;;15.87;100.00;100500.80;1754390;80;21099;-40
2021/05/28 03:14:51;;;;;;;2.60;2.10;;;;;;;15.98;100.00;100504.13;1781510;80;21070;-46
2021/05/28 03:17:17;;;;;;;3.40;1.70;;;;;;;16.10;100.00;100496.09;1787586;79;21535;-46
2021/05/28 03:19:46;;;;;;;2.30;1.65;;;;;;;16.21;100.00;100496.63;1768968;79;21032;-41
2021/05/28 03:22:32;;;;;;;5.33;2.90;;;;;;;16.32;100.00;100496.05;1767876;79;21040;-46
2021/05/28 03:25:05;;;;;;;4.10;2.22;;;;;;;16.45;100.00;100496.27;1767944;81;21058;-41
2021/05/28 03:27:32;;;;;;;3.20;2.90;;;;;;;16.58;100.00;100500.86;1774465;79;20998;-42
2021/05/28 03:29:58;;;;;;;4.05;2.52;;;;;;;16.70;100.00;100505.20;1775084;79;21043;-46
2021/05/28 03:32:25;;;;;;;2.75;2.50;;;;;;;16.82;100.00;100500.50;1802874;79;21078;-46
2021/05/28 03:34:53;;;;;;;2.60;1.70;;;;;;;16.93;100.00;100489.97;1785665;80;21549;-45
2021/05/28 03:37:20;;;;;;;1.67;1.20;;;;;;;17.03;100.00;100491.04;1760570;80;21083;-45
2021/05/28 03:39:47;;;;;;;2.95;2.58;;;;;;;17.14;100.00;100500.66;1752384;80;21452;-41
2021/05/28 03:42:14;;;;;;;3.47;2.12;;;;;;;17.24;100.00;100496.77;1747807;80;21021;-43
2021/05/28 03:44:40;;;;;;;2.80;2.08;;;;;;;17.34;100.00;100503.93;1777503;80;21063;-41
2021/05/28 03:47:07;;;;;;;2.50;1.90;;;;;;;17.39;100.00;100503.20;1757921;80;21548;-46
2021/05/28 03:49:35;;;;;;;3.75;1.32;;;;;;;17.49;100.00;100504.02;1756852;81;21612;-42
2021/05/28 03:52:02;;;;;;;4.33;3.12;;;;;;;17.56;100.00;100492.72;1726809;81;21066;-41
2021/05/28 03:54:29;;;;;;;2.77;2.33;;;;;;;17.68;100.00;100496.77;1762170;80;21016;-41
2021/05/28 03:56:55;;;;;;;2.50;2.22;;;;;;;17.78;100.00;100494.50;1757333;80;21084;-42
2021/05/28 03:59:22;;;;;;;4.10;1.95;;;;;;;17.89;100.00;100492.81;1785808;80;21008;-42
2021/05/28 04:01:48;;;;;;;3.02;2.12;;;;;;;18.02;100.00;100489.03;1767467;80;21028;-46
2021/05/28 04:04:17;;;;;;;1.87;1.62;;;;;;;18.16;100.00;100488.84;1781797;80;21438;-46
2021/05/28 04:06:43;;;;;;;2.75;1.52;;;;;;;18.30;100.00;100488.08;1752559;80;21518;-41
2021/05/28 04:09:10;;;;;;;2.75;1.72;;;;;;;18.45;100.00;100476.47;1756782;79;21105;-41
2021/05/28 04:11:36;;;;;;;3.52;2.12;;;;;;;18.61;100.00;100478.67;1737764;80;21046;-41
2021/05/28 04:14:04;;;;;;;2.33;1.72;;;;;;;18.74;100.00;100479.58;1783083;80;20988;-42
2021/05/28 04:16:31;;;;;;;3.45;1.90;;;;;;;18.85;100.00;100484.44;1762035;80;21043;-45
2021/05/28 04:18:57;;;;;;;2.60;1.65;;;;;;;18.97;100.00;100478.19;1760546;78;21020;-45
2021/05/28 04:21:25;;;;;;;2.77;2.08;;;;;;;19.06;100.00;100476.15;1781506;80;21082;-42
2021/05/28 04:23:52;;;;;;;3.15;2.12;;;;;;;19.17;100.00;100471.05;1814411;78;21428;-44
2021/05/28 04:26:18;;;;;;;4.35;1.75;;;;;;;19.38;100.00;100470.23;1780878;80;21135;-45
2021/05/28 04:28:46;;;;;;;2.10;1.90;;;;;;;19.38;100.00;100470.23;1774999;80;21051;-46
2021/05/28 04:31:13;;;;;;;1.60;1.07;;;;;;;19.44;100.00;100466.12;1800128;78;21024;-45
2021/05/28 04:33:39;;;;;;;2.12;1.60;;;;;;;19.55;100.00;100471.47;1807486;79;21051;-46
2021/05/28 04:36:06;;;;;;;1.40;1.20;;;;;;;19.67;100.00;100481.81;1753900;80;21015;-41
2021/05/28 04:38:32;;;;;;;1.45;1.35;;;;;;;19.76;100.00;100483.38;1784185;79;21537;-42
2021/05/28 04:40:59;;;;;;;1.30;1.20;;;;;;;19.87;100.00;100487.11;1778543;79;21071;-45
2021/05/28 04:43:25;;;;;;;2.42;1.02;;;;;;;19.87;100.00;100487.11;1779223;80;21019;-43
2021/05/28 04:45:52;;;;;;;2.52;1.32;;;;;;;19.96;99.35;100485.07;1777229;80;21570;-46
2021/05/28 04:48:18;;;;;;;1.77;1.12;;;;;;;20.03;98.48;100488.10;1788692;79;21000;-42
2021/05/28 04:50:44;;;;;;;0.98;0.93;;;;;;;20.15;97.86;100481.75;1766732;80;21029;-46
2021/05/28 04:53:11;;;;;;;2.92;2.05;;;;;;;20.24;96.04;100477.51;1772333;80;21054;-42
2021/05/28 04:55:38;;;;;;;1.27;1.17;;;;;;;20.32;95.53;100480.75;1762279;80;21031;-46
2021/05/28 04:58:04;;;;;;;2.17;1.55;;;;;;;20.40;94.04;100482.05;1763410;80;21004;-45
2021/05/28 05:00:32;;;;;;;1.98;1.15;;;;;;;20.44;92.38;100486.91;1770145;80;21161;-46
2021/05/28 05:02:59;;;;;;;1.32;0.95;;;;;;;20.56;92.03;100486.95;1766576;80;21932;-41
2021/05/28 05:05:26;;;;;;;0.95;0.88;;;;;;;20.69;90.96;100481.62;1763730;80;21076;-43
2021/05/28 05:07:52;;;;;;;0.95;0.82;;;;;;;20.76;90.08;100474.91;1768936;79;21044;-42
2021/05/28 05:10:19;;;;;;;1.32;1.12;;;;;;;20.82;89.41;100471.31;1768486;80;21059;-46
2021/05/28 05:12:45;;;;;;;2.12;1.55;;;;;;;20.87;88.81;100478.05;1764075;80;21114;-46
2021/05/28 05:15:12;;;;;;;0.62;0.62;;;;;;;20.97;87.82;100482.32;1762292;80;21094;-46
2021/05/28 05:17:39;;;;;;;1.60;1.32;;;;;;;21.01;86.99;100471.52;1766906;79;21095;-41
2021/05/28 05:20:07;;;;;;;1.20;0.90;;;;;;;21.04;86.66;100472.23;1783006;80;21022;-41
2021/05/28 05:22:35;;;;;;;1.00;0.80;;;;;;;21.08;85.90;100475.70;1776131;79;21032;-45
2021/05/28 05:25:01;;;;;;;1.42;0.90;;;;;;;21.11;85.75;100474.99;1767893;80;21067;-46
2021/05/28 05:27:27;;;;;;;1.17;1.07;;;;;;;21.20;85.00;100477.06;1769556;79;21043;-47
2021/05/28 05:29:54;;;;;;;4.03;1.30;;;;;;;21.28;84.45;100467.77;1740925;80;21052;-46
2021/05/28 05:32:20;;;;;;;0.65;0.65;;;;;;;21.34;84.41;100467.77;1768868;81;20997;-46
2021/05/28 05:34:47;;;;;;;1.98;0.95;;;;;;;21.48;84.67;100468.20;1752160;81;21545;-42
2021/05/28 05:37:13;;;;;;;0.70;0.70;;;;;;;21.60;84.72;100463.77;1783294;80;21031;-46
2021/05/28 05:39:39;;;;;;;1.85;1.35;;;;;;;21.75;85.39;100460.22;1768754;81;21103;-45
2021/05/28 05:42:07;;;;;;;2.00;1.32;;;;;;;21.98;84.33;100455.47;1752702;80;21047;-41
2021/05/28 05:44:33;;;;;;;1.50;0.90;;;;;;;22.08;83.23;100459.11;1783416;80;21358;-42
2021/05/28 05:46:59;;;;;;;1.32;0.80;;;;;;;22.15;82.70;100455.13;1769441;80;21061;-46
2021/05/28 05:49:26;;;;;;;0.90;0.82;;;;;;;22.18;80.75;100460.56;1752903;81;21556;-46
2021/05/28 05:51:52;;;;;;;0.70;0.70;;;;;;;22.17;79.37;100461.15;1783941;80;21016;-41
2021/05/28 05:54:18;;;;;;;0.85;0.60;;;;;;;22.19;78.99;100458.82;1770712;80;21158;-46
2021/05/28 05:56:45;;;;;;;1.17;0.62;;;;;;;22.25;77.19;100465.75;1772208;79;21866;-44
2021/05/28 05:59:12;;;;;;;1.05;0.98;;;;;;;22.34;77.23;100466.98;1761567;81;21090;-47
2021/05/28 06:01:39;;;;;;;0.70;0.70;;;;;;;22.48;76.70;100460.98;1759997;81;21075;-46
2021/05/28 06:04:06;;;;;;;0.53;0.53;;;;;;;22.67;77.25;100458.25;1794104;78;21050;-42
2021/05/28 06:06:32;;;;;;;0.30;0.30;;;;;;;22.80;75.30;100460.36;1792693;78;21071;-46
2021/05/28 06:09:00;;;;;;;0.55;0.55;;;;;;;22.89;74.96;100456.77;1792850;79;21004;-47
2021/05/28 06:11:28;;;;;;;0.80;0.80;;;;;;;23.07;75.29;100460.02;1803825;79;21019;-46
2021/05/28 06:13:55;;;;;;;1.60;0.65;;;;;;;23.23;72.37;100459.16;1792917;78;21631;-46
2021/05/28 06:16:21;;;;;;;0.70;0.53;;;;;;;23.31;71.92;100453.94;1793792;78;21035;-47
2021/05/28 06:18:48;;;;;;;0.70;0.70;;;;;;;23.39;72.92;100444.55;1761450;81;21026;-42
2021/05/28 06:21:16;;;;;;;2.05;1.27;;;;;;;23.49;73.08;100443.98;1794215;78;21060;-42
2021/05/28 06:23:42;;;;;;;1.70;0.80;;;;;;;23.55;72.72;100445.30;1765606;80;21060;-43
2021/05/28 06:26:09;;;;;;;1.12;0.65;;;;;;;23.58;73.09;100445.94;1791942;80;21065;-41
2021/05/28 06:28:35;;;;;;;1.02;0.93;;;;;;;23.70;73.97;100443.59;1792269;80;21053;-42
2021/05/28 06:31:02;;;;;;;1.15;1.00;;;;;;;23.85;70.85;100442.50;1792582;79;21550;-42
2021/05/28 06:33:28;;;;;;;1.02;0.93;;;;;;;23.85;69.61;100440.52;1792909;80;21612;-42
2021/05/28 06:35:55;;;;;;;1.10;0.98;;;;;;;23.85;69.21;100448.89;1786767;80;21027;-46
2021/05/28 06:38:21;;;;;;;2.62;1.17;;;;;;;23.77;68.60;100447.95;1761843;80;21111;-41
2021/05/28 06:40:47;;;;;;;0.45;0.42;;;;;;;23.68;68.90;100458.49;1777890;80;21090;-45
2021/05/28 06:43:15;;;;;;;0.47;0.47;;;;;;;23.61;68.78;100456.39;1792455;80;38215;-47
2021/05/28 06:45:42;;;;;;;1.10;0.72;;;;;;;23.52;68.14;100450.81;1792785;79;21026;-42
2021/05/28 06:48:09;;;;;;;2.37;1.15;;;;;;;23.46;68.08;100448.88;1792604;80;21047;-46
2021/05/28 06:50:37;;;;;;;1.42;0.62;;;;;;;23.49;69.23;100446.77;1780448;79;21071;-41
2021/05/28 06:53:03;;;;;;;2.50;1.15;;;;;;;23.60;69.78;100448.38;1761215;81;21014;-42
2021/05/28 06:55:30;;;;;;;1.02;0.90;;;;;;;23.72;68.44;100448.81;1779443;80;21166;-41
2021/05/28 06:57:57;;;;;;;0.68;0.68;;;;;;;23.81;65.96;100441.03;1786741;80;21557;-46
2021/05/28 07:00:23;;;;;;;0.72;0.70;;;;;;;23.97;67.06;100443.14;1774352;79;21043;-46
2021/05/28 07:02:50;;;;;;;0.60;0.60;;;;;;;24.10;64.72;100440.97;1773736;79;21022;-46
2021/05/28 07:05:16;;;;;;;0.95;0.88;;;;;;;24.15;64.66;100435.67;1783118;79;21011;-42
2021/05/28 07:07:43;;;;;;;0.90;0.90;;;;;;;24.23;64.33;100440.19;1789687;80;21544;-42
2021/05/28 07:10:11;;;;;;;1.10;1.00;;;;;;;24.31;66.16;100432.17;1792725;79;21050;-41
2021/05/28 07:12:39;;;;;;;0.30;0.30;;;;;;;24.50;65.21;100437.48;1758462;81;21025;-46
2021/05/28 07:15:07;;;;;;;0.68;0.60;;;;;;;24.54;63.98;100428.58;1752576;81;21076;-45
2021/05/28 07:17:34;;;;;;;0.95;0.70;;;;;;;24.60;64.06;100432.05;1770858;81;21082;-46
2021/05/28 07:20:01;;;;;;;0.88;0.70;;;;;;;24.73;64.29;100429.87;1790334;80;21062;-45
2021/05/28 07:22:29;;;;;;;1.50;0.75;;;;;;;24.86;64.36;100429.86;1789821;80;21039;-41
2021/05/28 07:24:55;;;;;;;0.68;0.53;;;;;;;24.98;64.74;100425.25;1756992;81;21019;-46
2021/05/28 07:27:22;;;;;;;0.50;0.50;;;;;;;25.08;64.08;100430.17;1750217;82;21573;-46
2021/05/28 07:29:49;;;;;;;1.07;0.98;;;;;;;25.16;63.24;100429.08;1768930;79;21730;-46
2021/05/28 07:32:15;;;;;;;1.05;0.57;;;;;;;25.29;62.45;100427.67;1769737;79;21042;-47
2021/05/28 07:34:42;;;;;;;0.68;0.60;;;;;;;25.25;62.11;100425.44;1787458;79;21023;-45
2021/05/28 07:37:09;;;;;;;0.50;0.45;;;;;;;25.20;60.17;100427.77;1790074;80;21055;-41
2021/05/28 07:39:36;;;;;;;0.62;0.45;;;;;;;25.15;60.23;100433.06;1803139;79;21031;-46
2021/05/28 07:42:04;;;;;;;0.53;0.53;;;;;;;25.18;61.94;100423.95;1758796;81;21607;-46
2021/05/28 07:44:30;;;;;;;1.05;0.98;;;;;;;25.30;61.38;100426.50;1789909;80;21035;-42
2021/05/28 07:46:57;;;;;;;0.40;0.40;;;;;;;25.39;60.21;100423.39;1789813;80;21035;-41
2021/05/28 07:49:24;;;;;;;0.88;0.65;;;;;;;25.40;57.83;100426.42;1790142;80;20992;-41
2021/05/28 07:51:52;;;;;;;0.75;0.68;;;;;;;25.43;58.27;100415.86;1789847;80;21031;-42
2021/05/28 07:54:19;;;;;;;0.80;0.37;;;;;;;25.65;58.87;100421.72;1788987;80;21031;-42
2021/05/28 07:56:46;;;;;;;1.55;0.90;;;;;;;25.86;57.87;100421.95;1707938;84;21051;-41
2021/05/28 07:59:13;;;;;;;0.70;0.50;;;;;;;25.92;55.99;100414.03;1689828;84;21035;-41
2021/05/28 08:01:39;;;;;;;0.68;0.68;;;;;;;26.01;57.59;100410.30;1708027;84;21051;-41
2021/05/28 08:04:06;;;;;;;0.70;0.50;;;;;;;26.14;55.63;100413.04;1708242;84;21076;-46
2021/05/28 08:06:32;;;;;;;2.35;1.20;;;;;;;26.09;52.43;100413.40;1708073;84;21129;-41
2021/05/28 08:08:59;;;;;;;0.57;0.50;;;;;;;25.98;52.99;100409.67;1708141;83;21424;-46
2021/05/28 08:11:25;;;;;;;1.20;0.53;;;;;;;25.96;52.90;100407.86;1708222;84;21783;-46
2021/05/28 08:13:52;;;;;;;0.68;0.60;;;;;;;25.99;53.19;100402.91;1708167;83;21663;-41
2021/05/28 08:16:18;;;;;;;2.27;0.82;;;;;;;25.99;54.59;100404.31;1708096;83;21627;-46
2021/05/28 08:18:46;;;;;;;0.70;0.40;;;;;;;25.93;54.51;100405.23;1708461;84;21019;-46
2021/05/28 08:21:12;;;;;;;0.40;0.40;;;;;;;25.87;53.99;100398.98;1708130;84;21103;-46
2021/05/28 08:23:39;;;;;;;0.53;0.53;;;;;;;25.79;52.84;100404.25;1708219;84;21038;-42
2021/05/28 08:26:06;;;;;;;0.50;0.50;;;;;;;25.71;51.79;100395.78;1708170;84;21632;-41
2021/05/28 08:28:34;;;;;;;1.90;1.32;;;;;;;25.71;53.20;100399.98;1689851;84;21031;-42
2021/05/28 08:31:02;;;;;;;0.65;0.65;;;;;;;25.75;51.91;100392.44;1708017;83;21047;-41
2021/05/28 08:33:29;;;;;;;1.35;1.15;;;;;;;25.82;49.90;100397.91;1708312;83;21082;-46
2021/05/28 08:35:55;;;;;;;0.47;0.47;;;;;;;25.81;48.22;100393.48;1708156;84;21043;-46
2021/05/28 08:38:21;;;;;;;0.42;0.42;;;;;;;25.80;48.14;100389.09;1708145;83;21056;-43
2021/05/28 08:40:48;;;;;;;0.75;0.57;;;;;;;25.93;49.62;100393.23;1707995;83;21030;-45
2021/05/28 08:43:14;;;;;;;0.57;0.40;;;;;;;25.99;48.43;100386.68;1708194;84;21035;-41
2021/05/28 08:45:43;;;;;;;0.30;0.30;;;;;;;26.11;48.18;100380.22;1708015;83;21075;-46
2021/05/28 08:48:12;;;;;;;0.30;0.30;;;;;;;26.22;47.16;100380.90;1708127;84;21114;-46
2021/05/28 08:50:38;;;;;;;0.75;0.75;;;;;;;26.32;46.17;100377.38;1707983;83;21040;-42
2021/05/28 08:53:07;;;;;;;0.93;0.50;;;;;;;26.52;47.09;100380.11;1708174;83;21568;-41
2021/05/28 08:55:34;;;;;;;0.45;0.40;;;;;;;26.64;49.07;100372.63;1725567;81;21135;-41
2021/05/28 08:58:09;;;;;;;1.17;1.02;;;;;;;26.72;48.28;100368.06;1758588;81;21069;-46
2021/05/28 09:00:36;;;;;;;2.12;1.20;;;;;;;26.79;48.04;100368.70;1738786;82;21573;-41
2021/05/28 09:03:24;;;;;;;0.70;0.70;;;;;;;26.77;49.34;100361.28;1742057;82;21561;-45
2021/05/28 09:05:52;;;;;;;0.40;0.40;;;;;;;26.76;50.34;100364.69;1750261;81;21079;-42
2021/05/28 09:08:34;;;;;;;0.50;0.50;;;;;;;26.83;50.34;100363.94;1750142;81;21581;-47
2021/05/28 09:11:17;;;;;;;0.70;0.47;;;;;;;26.83;48.89;100365.34;1753268;81;21095;-42
2021/05/28 09:13:49;;;;;;;1.10;0.82;;;;;;;26.84;50.05;100357.12;1753792;81;21608;-42
2021/05/28 09:16:23;;;;;;;0.82;0.62;;;;;;;26.99;52.41;100353.18;1753311;81;21106;-41
2021/05/28 09:18:58;;;;;;;0.68;0.60;;;;;;;27.24;51.31;100352.51;1753516;81;21045;-46
2021/05/28 09:21:32;;;;;;;0.80;0.60;;;;;;;27.36;49.43;100354.95;1753219;81;21001;-41
2021/05/28 09:24:00;;;;;;;0.93;0.78;;;;;;;27.43;48.01;100347.96;1753660;81;21043;-46
2021/05/28 09:26:28;;;;;;;1.30;0.72;;;;;;;27.49;48.65;100347.57;1753564;81;21632;-46
2021/05/28 09:28:56;;;;;;;1.22;1.10;;;;;;;27.59;47.43;100342.58;1753515;81;20991;-46
2021/05/28 09:31:25;;;;;;;0.30;0.30;;;;;;;27.75;47.01;100344.41;1753731;81;21533;-42
2021/05/28 09:33:54;;;;;;;1.65;1.17;;;;;;;27.66;45.93;100344.79;1753533;81;21071;-46
2021/05/28 09:36:24;;;;;;;0.90;0.85;;;;;;;27.52;47.11;100346.77;1753124;81;21043;-42
2021/05/28 09:39:07;;;;;;;0.75;0.70;;;;;;;27.34;45.20;100342.52;1753378;81;21016;-43
2021/05/28 09:41:43;;;;;;;0.95;0.70;;;;;;;27.25;47.18;100344.31;1753448;81;21103;-46
2021/05/28 09:44:17;;;;;;;0.40;0.40;;;;;;;27.23;48.99;100343.30;1753504;81;21541;-42
2021/05/28 09:47:18;;;;;;;1.95;0.60;;;;;;;27.28;50.59;100339.31;1753416;81;21035;-44
2021/05/28 09:49:48;;;;;;;1.02;0.98;;;;;;;27.42;49.87;100339.92;1753697;81;21075;-46
2021/05/28 09:52:20;;;;;;;0.80;0.80;;;;;;;27.56;47.86;100326.55;1753277;81;21596;-47
2021/05/28 09:55:10;;;;;;;;;;;;;;;27.72;47.38;100334.57;1752870;81;21004;-46
2021/05/28 09:57:45;;;;;;;0.98;0.88;;;;;;;27.66;45.95;100327.16;1776810;80;20223;-46
2021/05/28 10:00:36;;;;;;;0.90;0.72;;;;;;;27.60;47.20;100322.55;1740411;82;21123;-45
2021/05/28 10:03:22;;;;;;;0.53;0.53;;;;;;;27.69;47.51;100319.33;1740517;82;21351;-46
2021/05/28 10:05:56;;;;;;;0.98;0.80;;;;;;;27.74;50.08;100313.32;1740413;82;21114;-42
2021/05/28 10:08:24;;;;;;;0.85;0.78;;;;;;;27.84;48.27;100309.77;1740366;82;21623;-43
2021/05/28 10:10:52;;;;;;;0.60;0.50;;;;;;;27.77;46.85;100304.70;1740391;82;21094;-42
2021/05/28 10:13:23;;;;;;;0.78;0.70;;;;;;;27.75;48.50;100302.31;1740492;82;21062;-42
2021/05/28 10:15:52;;;;;;;0.80;0.60;;;;;;;27.80;47.92;100308.13;1740284;82;21212;-42
2021/05/28 10:18:19;;;;;;;0.90;0.90;;;;;;;27.78;46.48;100304.31;1740416;82;21038;-42
2021/05/28 10:20:48;;;;;;;1.65;0.78;;;;;;;27.63;45.65;100295.69;1740301;82;21062;-42
2021/05/28 10:23:15;;;;;;;0.78;0.68;;;;;;;27.40;46.80;100289.84;1740448;82;21008;-46
2021/05/28 10:25:42;;;;;;;0.95;0.72;;;;;;;27.22;47.46;100291.19;1740163;82;21054;-46
2021/05/28 10:28:21;;;;;;;0.42;0.42;;;;;;;27.27;47.02;100292.80;1740520;82;21576;-42
2021/05/28 10:30:49;;;;;;;0.30;0.30;;;;;;;27.26;47.09;100291.21;1740270;82;21083;-42
2021/05/28 10:33:20;;;;;;;0.50;0.50;;;;;;;27.10;45.96;100287.34;1712936;82;21070;-42
2021/05/28 10:35:49;;;;;;;0.63;0.63;;;;;;;26.81;44.38;100287.84;1740530;82;21043;-46
2021/05/28 10:38:43;;;;;;;0.57;0.57;;;;;;;26.65;45.98;100280.34;1740475;82;21339;-46
2021/05/28 10:41:18;;;;;;;0.70;0.70;;;;;;;26.60;46.43;100275.31;1740247;82;21064;-46
2021/05/28 10:43:54;;;;;;;0.80;0.62;;;;;;;26.65;46.33;100269.94;1740449;82;21042;-42
2021/05/28 10:46:20;;;;;;;0.75;0.50;;;;;;;26.71;44.23;100261.97;1740462;82;21522;-42
2021/05/28 10:49:06;;;;;;;0.72;0.70;;;;;;;26.73;46.34;100260.95;1740595;82;21027;-46
2021/05/28 10:51:38;;;;;;;0.40;0.40;;;;;;;26.58;45.02;100266.52;1740288;82;21066;-46
2021/05/28 10:54:09;;;;;;;0.93;0.65;;;;;;;26.34;44.45;100261.56;1740275;82;21063;-43
2021/05/28 10:56:42;;;;;;;0.85;0.50;;;;;;;26.26;47.16;100259.31;1748029;81;21043;-44
2021/05/28 10:59:19;;;;;;;1.40;1.02;;;;;;;26.31;48.50;100265.12;1753650;81;21103;-46
2021/05/28 11:01:49;;;;;;;0.50;0.50;;;;;;;26.32;46.24;100261.94;1728517;82;21089;-47
2021/05/28 11:04:17;;;;;;;0.65;0.65;;;;;;;26.30;46.56;100264.92;1701430;83;21568;-43
2021/05/28 11:07:02;;;;;;;1.20;0.72;;;;;;;26.37;44.48;100263.57;1728262;82;21560;-42
2021/05/28 11:09:44;;;;;;;1.02;0.98;;;;;;;26.49;44.70;100253.43;1721879;83;21010;-42
2021/05/28 11:12:28;;;;;;;0.70;0.70;;;;;;;26.61;44.46;100256.53;1701634;83;21615;-47
2021/05/28 11:15:04;;;;;;;0.45;0.30;;;;;;;26.69;43.00;100248.34;1726877;83;21404;-42
2021/05/28 11:17:30;;;;;;;1.25;0.88;;;;;;;26.70;44.67;100242.94;1728542;82;21567;-47
2021/05/28 11:20:05;;;;;;;0.95;0.90;;;;;;;26.69;44.73;100243.34;1728353;83;21075;-47
2021/05/28 11:22:38;;;;;;;0.85;0.53;;;;;;;26.72;45.65;100239.75;1728564;83;21504;-43
2021/05/28 11:25:17;;;;;;;0.53;0.50;;;;;;;26.86;44.22;100239.80;1728654;82;21018;-47
2021/05/28 11:28:02;;;;;;;1.77;0.75;;;;;;;26.85;45.84;100226.97;1728454;82;21059;-47